createdAt,value
2023-12-11T00:01:54.329Z,100.00
2023-12-11T00:04:21.542Z,100.00
2023-12-11T00:06:48.832Z,100.00
2023-12-11T00:09:16.129Z,100.00
2023-12-11T00:11:43.263Z,100.00
2023-12-11T00:14:10.612Z,100.00
2023-12-11T00:16:38.272Z,100.00
2023-12-11T00:19:05.570Z,100.00
2023-12-11T00:21:32.893Z,100.00
2023-12-11T00:24:00.007Z,100.00
2023-12-11T00:26:27.186Z,100.00
2023-12-11T00:28:54.240Z,100.00
2023-12-11T00:31:23.044Z,100.00
2023-12-11T00:33:50.456Z,100.00
2023-12-11T00:36:17.700Z,100.00
2023-12-11T00:38:44.838Z,100.00
2023-12-11T00:41:12.193Z,100.00
2023-12-11T00:43:45.188Z,100.00
2023-12-11T00:46:25.353Z,100.00
2023-12-11T00:48:52.880Z,100.00
2023-12-11T00:51:21.715Z,100.00
2023-12-11T00:53:49.419Z,100.00
2023-12-11T00:56:17.130Z,100.00
2023-12-11T00:58:44.825Z,100.00
2023-12-11T01:01:12.172Z,100.00
2023-12-11T01:03:40.216Z,100.00
2023-12-11T01:06:08.503Z,100.00
2023-12-11T01:08:40.095Z,100.00
2023-12-11T01:11:08.014Z,100.00
2023-12-11T01:13:35.278Z,100.00
2023-12-11T01:16:02.474Z,100.00
2023-12-11T01:18:30.095Z,100.00
2023-12-11T01:20:57.325Z,100.00
2023-12-11T01:23:24.574Z,100.00
2023-12-11T01:25:51.714Z,100.00
2023-12-11T01:28:20.154Z,100.00
2023-12-11T01:30:47.489Z,100.00
2023-12-11T01:33:14.865Z,100.00
2023-12-11T01:35:42.263Z,100.00
2023-12-11T01:38:09.412Z,100.00
2023-12-11T01:40:36.617Z,100.00
2023-12-11T01:43:19.451Z,100.00
2023-12-11T01:45:51.902Z,100.00
2023-12-11T01:48:19.258Z,100.00
2023-12-11T01:50:46.714Z,100.00
2023-12-11T01:53:14.382Z,100.00
2023-12-11T01:55:42.157Z,100.00
2023-12-11T01:58:10.033Z,100.00
2023-12-11T02:00:37.283Z,100.00
2023-12-11T02:03:04.509Z,100.00
2023-12-11T02:05:31.704Z,100.00
2023-12-11T02:08:00.081Z,100.00
2023-12-11T02:10:27.206Z,100.00
2023-12-11T02:12:54.901Z,100.00
2023-12-11T02:15:58.075Z,100.00
2023-12-11T02:18:25.746Z,100.00
2023-12-11T02:20:52.936Z,100.00
2023-12-11T02:23:44.847Z,100.00
2023-12-11T02:26:12.784Z,100.00
2023-12-11T02:28:40.110Z,100.00
2023-12-11T02:31:07.381Z,100.00
2023-12-11T02:33:34.557Z,100.00
2023-12-11T02:36:02.301Z,100.00
2023-12-11T02:38:29.929Z,100.00
2023-12-11T02:40:57.349Z,100.00
2023-12-11T02:43:24.661Z,100.00
2023-12-11T02:45:51.952Z,100.00
2023-12-11T02:48:19.798Z,100.00
2023-12-11T02:50:47.161Z,100.00
2023-12-11T02:53:14.520Z,100.00
2023-12-11T02:55:41.764Z,100.00
2023-12-11T02:58:09.158Z,100.00
2023-12-11T03:00:37.489Z,100.00
2023-12-11T03:03:05.058Z,100.00
2023-12-11T03:05:32.656Z,100.00
2023-12-11T03:07:59.779Z,100.00
2023-12-11T03:10:26.847Z,100.00
2023-12-11T03:12:54.028Z,100.00
2023-12-11T03:15:21.269Z,100.00
2023-12-11T03:17:48.697Z,100.00
2023-12-11T03:20:15.948Z,100.00
2023-12-11T03:22:43.385Z,100.00
2023-12-11T03:25:10.839Z,100.00
2023-12-11T03:27:38.129Z,100.00
2023-12-11T03:30:06.021Z,100.00
2023-12-11T03:32:33.734Z,100.00
2023-12-11T03:35:00.899Z,100.00
2023-12-11T03:37:28.456Z,100.00
2023-12-11T03:39:55.814Z,100.00
2023-12-11T03:42:22.999Z,100.00
2023-12-11T03:44:50.766Z,100.00
2023-12-11T03:47:18.740Z,100.00
2023-12-11T03:49:46.040Z,100.00
2023-12-11T03:52:13.393Z,100.00
2023-12-11T03:54:40.576Z,100.00
2023-12-11T03:57:07.776Z,100.00
2023-12-11T03:59:35.590Z,100.00
2023-12-11T04:02:03.041Z,100.00
2023-12-11T04:04:31.526Z,100.00
2023-12-11T04:06:58.842Z,100.00
2023-12-11T04:09:26.063Z,100.00
2023-12-11T04:11:53.217Z,100.00
2023-12-11T04:14:20.556Z,100.00
2023-12-11T04:16:47.700Z,100.00
2023-12-11T04:19:14.946Z,100.00
2023-12-11T04:21:42.641Z,100.00
2023-12-11T04:24:12.628Z,100.00
2023-12-11T04:26:41.516Z,100.00
2023-12-11T04:29:08.636Z,100.00
2023-12-11T04:31:35.734Z,100.00
2023-12-11T04:34:03.441Z,100.00
2023-12-11T04:36:30.878Z,100.00
2023-12-11T04:38:58.030Z,100.00
2023-12-11T04:41:25.199Z,100.00
2023-12-11T04:43:52.409Z,100.00
2023-12-11T04:46:19.596Z,100.00
2023-12-11T04:48:46.832Z,100.00
2023-12-11T04:51:14.033Z,100.00
2023-12-11T04:53:41.133Z,100.00
2023-12-11T04:56:09.386Z,100.00
2023-12-11T04:58:36.524Z,100.00
2023-12-11T05:01:04.195Z,100.00
2023-12-11T05:03:31.605Z,100.00
2023-12-11T05:05:58.749Z,100.00
2023-12-11T05:08:28.025Z,100.00
2023-12-11T05:10:57.413Z,100.00
2023-12-11T05:13:24.992Z,100.00
2023-12-11T05:15:52.353Z,100.00
2023-12-11T05:18:19.704Z,100.00
2023-12-11T05:20:46.976Z,100.00
2023-12-11T05:23:14.165Z,100.00
2023-12-11T05:25:41.333Z,100.00
2023-12-11T05:28:08.523Z,100.00
2023-12-11T05:30:35.749Z,100.00
2023-12-11T05:33:03.191Z,100.00
2023-12-11T05:35:30.545Z,100.00
2023-12-11T05:37:59.839Z,100.00
2023-12-11T05:40:27.611Z,100.00
2023-12-11T05:42:55.032Z,100.00
2023-12-11T05:45:22.411Z,100.00
2023-12-11T05:47:49.642Z,100.00
2023-12-11T05:50:17.072Z,100.00
2023-12-11T05:52:45.473Z,100.00
2023-12-11T05:55:13.143Z,100.00
2023-12-11T05:57:40.613Z,100.00
2023-12-11T06:00:08.685Z,100.00
2023-12-11T06:02:35.936Z,100.00
2023-12-11T06:05:03.263Z,100.00
2023-12-11T06:07:30.676Z,100.00
2023-12-11T06:09:58.067Z,100.00
2023-12-11T06:12:25.275Z,100.00
2023-12-11T06:14:52.563Z,100.00
2023-12-11T06:17:20.837Z,100.00
2023-12-11T06:19:48.141Z,100.00
2023-12-11T06:22:15.527Z,100.00
2023-12-11T06:24:42.955Z,100.00
2023-12-11T06:27:10.453Z,100.00
2023-12-11T06:29:39.363Z,100.00
2023-12-11T06:32:07.000Z,100.00
2023-12-11T06:34:35.008Z,100.00
2023-12-11T06:37:02.430Z,100.00
2023-12-11T06:39:29.954Z,100.00
2023-12-11T06:41:58.799Z,100.00
2023-12-11T06:44:26.880Z,100.00
2023-12-11T06:46:54.596Z,100.00
2023-12-11T06:49:22.519Z,100.00
2023-12-11T06:51:50.834Z,100.00
2023-12-11T06:54:18.175Z,100.00
2023-12-11T06:56:45.376Z,100.00
2023-12-11T06:59:12.487Z,100.00
2023-12-11T07:01:40.015Z,100.00
2023-12-11T07:04:07.460Z,100.00
2023-12-11T07:06:34.916Z,100.00
2023-12-11T07:09:02.193Z,100.00
2023-12-11T07:11:29.430Z,100.00
2023-12-11T07:13:56.994Z,100.00
2023-12-11T07:16:25.201Z,100.00
2023-12-11T07:18:54.234Z,100.00
2023-12-11T07:21:21.642Z,100.00
2023-12-11T07:23:51.875Z,100.00
2023-12-11T07:26:19.199Z,100.00
2023-12-11T07:28:46.433Z,100.00
2023-12-11T07:31:13.771Z,100.00
2023-12-11T07:33:41.142Z,100.00
2023-12-11T07:36:08.729Z,100.00
2023-12-11T07:38:35.987Z,100.00
2023-12-11T07:41:06.206Z,100.00
2023-12-11T07:43:35.020Z,100.00
2023-12-11T07:46:03.443Z,100.00
2023-12-11T07:48:32.032Z,100.00
2023-12-11T07:50:59.501Z,100.00
2023-12-11T07:53:26.674Z,100.00
2023-12-11T07:55:53.770Z,100.00
2023-12-11T07:58:21.016Z,100.00
2023-12-11T08:00:48.501Z,100.00
2023-12-11T08:03:15.742Z,100.00
2023-12-11T08:05:42.910Z,100.00
2023-12-11T08:08:10.172Z,100.00
2023-12-11T08:10:37.363Z,100.00
2023-12-11T08:13:04.786Z,100.00
2023-12-11T08:15:31.916Z,100.00
2023-12-11T08:17:59.499Z,100.00
2023-12-11T08:20:26.791Z,100.00
2023-12-11T08:22:53.888Z,100.00
2023-12-11T08:25:21.045Z,100.00
2023-12-11T08:27:48.351Z,100.00
2023-12-11T08:30:15.485Z,100.00
2023-12-11T08:32:42.945Z,100.00
2023-12-11T08:35:10.434Z,100.00
2023-12-11T08:37:38.238Z,100.00
2023-12-11T08:40:07.224Z,100.00
2023-12-11T08:42:40.119Z,100.00
2023-12-11T08:45:09.546Z,100.00
2023-12-11T08:47:39.446Z,100.00
2023-12-11T08:50:09.249Z,100.00
2023-12-11T08:52:38.151Z,100.00
2023-12-11T08:55:06.775Z,100.00
2023-12-11T08:57:34.743Z,100.00
2023-12-11T09:00:02.365Z,100.00
2023-12-11T09:02:29.756Z,100.00
2023-12-11T09:04:57.008Z,100.00
2023-12-11T09:07:24.244Z,100.00
2023-12-11T09:09:51.531Z,100.00
2023-12-11T09:12:28.087Z,99.77
2023-12-11T09:15:01.515Z,98.40
2023-12-11T09:17:30.366Z,94.03
2023-12-11T09:19:58.321Z,91.64
2023-12-11T09:22:26.504Z,92.97
2023-12-11T09:24:53.801Z,92.49
2023-12-11T09:27:21.388Z,92.11
2023-12-11T09:29:50.548Z,91.90
2023-12-11T09:32:18.178Z,92.51
2023-12-11T09:34:45.909Z,92.82
2023-12-11T09:37:13.438Z,93.21
2023-12-11T09:39:41.010Z,92.79
2023-12-11T09:42:13.662Z,92.47
2023-12-11T09:44:46.977Z,91.48
2023-12-11T09:47:27.645Z,90.92
2023-12-11T09:49:55.439Z,89.71
2023-12-11T09:52:25.929Z,89.89
2023-12-11T09:54:53.127Z,89.83
2023-12-11T09:57:21.072Z,86.90
2023-12-11T09:59:51.844Z,85.84
2023-12-11T10:02:19.341Z,85.79
2023-12-11T10:05:26.142Z,83.61
2023-12-11T10:07:53.427Z,85.00
2023-12-11T10:10:23.203Z,83.27
2023-12-11T10:12:51.083Z,83.20
2023-12-11T10:15:26.815Z,84.42
2023-12-11T10:18:03.653Z,84.09
2023-12-11T10:20:32.111Z,84.17
2023-12-11T10:23:04.075Z,83.39
2023-12-11T10:25:32.682Z,81.44
2023-12-11T10:28:08.549Z,80.43
2023-12-11T10:30:54.445Z,80.65
2023-12-11T10:33:24.350Z,79.43
2023-12-11T10:35:52.340Z,77.85
2023-12-11T10:38:28.985Z,76.97
2023-12-11T10:40:57.721Z,77.51
2023-12-11T10:43:25.019Z,77.68
2023-12-11T10:45:52.947Z,77.63
2023-12-11T10:48:22.230Z,76.51
2023-12-11T10:50:50.178Z,75.64
2023-12-11T10:53:18.478Z,74.71
2023-12-11T10:55:48.088Z,75.01
2023-12-11T10:58:15.850Z,75.40
2023-12-11T11:00:45.969Z,74.50
2023-12-11T11:03:14.488Z,74.74
2023-12-11T11:05:42.669Z,74.68
2023-12-11T11:08:31.507Z,73.95
2023-12-11T11:11:02.705Z,73.28
2023-12-11T11:13:35.650Z,72.56
2023-12-11T11:16:04.187Z,72.15
2023-12-11T11:19:07.580Z,71.87
2023-12-11T11:21:34.814Z,71.62
2023-12-11T11:24:03.268Z,71.14
2023-12-11T11:26:36.204Z,70.63
2023-12-11T11:29:05.061Z,70.03
2023-12-11T11:31:52.162Z,68.27
2023-12-11T11:34:41.078Z,68.96
2023-12-11T11:37:09.503Z,68.56
2023-12-11T11:40:03.581Z,68.70
2023-12-11T11:42:33.522Z,68.92
2023-12-11T11:45:03.450Z,68.77
2023-12-11T11:47:33.144Z,68.45
2023-12-11T11:50:17.453Z,67.91
2023-12-11T11:52:52.184Z,67.86
2023-12-11T11:55:27.715Z,67.40
2023-12-11T11:57:55.687Z,67.33
2023-12-11T12:00:32.442Z,67.29
2023-12-11T12:03:02.138Z,67.31
2023-12-11T12:05:29.500Z,67.51
2023-12-11T12:07:57.341Z,67.31
2023-12-11T12:10:25.323Z,67.14
2023-12-11T12:13:02.397Z,67.49
2023-12-11T12:15:29.923Z,67.34
2023-12-11T12:18:10.165Z,67.67
2023-12-11T12:20:37.539Z,67.50
2023-12-11T12:23:07.969Z,67.88
2023-12-11T12:25:36.339Z,67.86
2023-12-11T12:28:15.121Z,68.23
2023-12-11T12:30:42.780Z,68.43
2023-12-11T12:33:12.490Z,67.80
2023-12-11T12:35:40.483Z,67.53
2023-12-11T12:38:08.823Z,67.27
2023-12-11T12:40:36.876Z,67.47
2023-12-11T12:43:11.867Z,68.17
2023-12-11T12:45:39.655Z,68.31
2023-12-11T12:48:09.648Z,68.70
2023-12-11T12:50:37.339Z,68.64
2023-12-11T12:53:13.243Z,68.85
2023-12-11T12:55:40.998Z,69.24
2023-12-11T12:58:09.657Z,69.65
2023-12-11T13:00:37.721Z,69.76
2023-12-11T13:03:08.945Z,69.97
2023-12-11T13:05:45.334Z,70.42
2023-12-11T13:08:15.926Z,70.79
2023-12-11T13:10:57.692Z,70.60
2023-12-11T13:13:28.083Z,70.53
2023-12-11T13:15:57.611Z,69.73
2023-12-11T13:18:26.527Z,69.59
2023-12-11T13:20:54.035Z,69.08
2023-12-11T13:23:21.283Z,68.83
2023-12-11T13:25:49.029Z,68.17
2023-12-11T13:28:16.237Z,68.55
2023-12-11T13:30:43.576Z,68.79
2023-12-11T13:33:11.283Z,70.09
2023-12-11T13:35:38.519Z,71.41
2023-12-11T13:38:05.758Z,72.82
2023-12-11T13:40:32.998Z,74.51
2023-12-11T13:43:00.296Z,75.34
2023-12-11T13:45:28.904Z,76.13
2023-12-11T13:47:56.242Z,76.31
2023-12-11T13:50:23.557Z,76.90
2023-12-11T13:52:51.247Z,77.19
2023-12-11T13:55:18.587Z,78.13
2023-12-11T13:57:45.876Z,78.99
2023-12-11T14:00:16.720Z,78.69
2023-12-11T14:03:00.713Z,79.26
2023-12-11T14:05:34.106Z,80.62
2023-12-11T14:08:03.842Z,82.93
2023-12-11T14:10:37.819Z,83.73
2023-12-11T14:13:05.220Z,85.47
2023-12-11T14:15:32.467Z,86.03
2023-12-11T14:17:59.886Z,88.56
2023-12-11T14:20:27.126Z,89.41
2023-12-11T14:22:54.198Z,89.51
2023-12-11T14:25:21.552Z,90.70
2023-12-11T14:27:48.874Z,92.04
2023-12-11T14:30:16.107Z,93.75
2023-12-11T14:32:43.406Z,95.00
2023-12-11T14:35:11.234Z,95.38
2023-12-11T14:37:41.809Z,96.75
2023-12-11T14:40:09.357Z,97.30
2023-12-11T14:42:36.532Z,98.65
2023-12-11T14:45:04.230Z,98.34
2023-12-11T14:47:31.735Z,98.35
2023-12-11T14:49:59.372Z,97.87
2023-12-11T14:52:27.593Z,97.39
2023-12-11T14:54:54.869Z,96.97
2023-12-11T14:57:22.095Z,96.85
2023-12-11T14:59:49.216Z,96.28
2023-12-11T15:02:17.374Z,95.63
2023-12-11T15:04:44.485Z,94.84
2023-12-11T15:07:12.614Z,95.20
2023-12-11T15:09:40.825Z,94.86
2023-12-11T15:12:08.868Z,94.99
2023-12-11T15:14:36.413Z,94.86
2023-12-11T15:17:03.851Z,95.52
2023-12-11T15:19:31.102Z,96.62
2023-12-11T15:21:58.273Z,96.62
2023-12-11T15:24:25.526Z,96.69
2023-12-11T15:26:55.619Z,96.62
2023-12-11T15:29:22.882Z,96.83
2023-12-11T15:31:50.230Z,97.56
2023-12-11T15:34:17.470Z,98.42
2023-12-11T15:36:44.695Z,98.60
2023-12-11T15:39:11.910Z,98.38
2023-12-11T15:41:39.128Z,98.38
2023-12-11T15:44:06.270Z,98.32
2023-12-11T15:46:33.522Z,98.92
2023-12-11T15:49:02.163Z,99.05
2023-12-11T15:51:30.477Z,98.84
2023-12-11T15:53:57.725Z,99.29
2023-12-11T15:56:24.946Z,99.33
2023-12-11T15:58:52.040Z,98.75
2023-12-11T16:01:19.357Z,98.98
2023-12-11T16:03:46.759Z,99.93
2023-12-11T16:06:14.097Z,99.77
2023-12-11T16:08:41.600Z,100.00
2023-12-11T16:11:08.853Z,100.00
2023-12-11T16:13:35.942Z,100.00
2023-12-11T16:16:03.848Z,100.00
2023-12-11T16:18:31.228Z,100.00
2023-12-11T16:20:59.200Z,100.00
2023-12-11T16:23:26.784Z,100.00
2023-12-11T16:26:00.245Z,100.00
2023-12-11T16:28:32.393Z,100.00
2023-12-11T16:30:59.746Z,100.00
2023-12-11T16:33:27.459Z,100.00
2023-12-11T16:35:54.712Z,100.00
2023-12-11T16:38:23.101Z,100.00
2023-12-11T16:40:50.344Z,100.00
2023-12-11T16:43:19.026Z,100.00
2023-12-11T16:45:46.841Z,100.00
2023-12-11T16:48:14.463Z,100.00
2023-12-11T16:50:44.399Z,100.00
2023-12-11T16:53:11.874Z,100.00
2023-12-11T16:55:39.729Z,100.00
2023-12-11T16:58:08.726Z,100.00
2023-12-11T17:00:35.989Z,100.00
2023-12-11T17:03:03.196Z,100.00
2023-12-11T17:05:30.580Z,100.00
2023-12-11T17:07:58.993Z,100.00
2023-12-11T17:10:26.377Z,100.00
2023-12-11T17:12:53.716Z,100.00
2023-12-11T17:15:21.040Z,100.00
2023-12-11T17:17:48.210Z,100.00
2023-12-11T17:20:15.626Z,100.00
2023-12-11T17:22:43.041Z,100.00
2023-12-11T17:25:10.388Z,100.00
2023-12-11T17:27:37.480Z,100.00
2023-12-11T17:30:05.232Z,99.68
2023-12-11T17:32:33.138Z,99.82
2023-12-11T17:35:02.948Z,99.92
2023-12-11T17:37:30.531Z,99.54
2023-12-11T17:39:57.741Z,99.40
2023-12-11T17:42:27.272Z,99.49
2023-12-11T17:44:54.553Z,98.99
2023-12-11T17:47:21.869Z,99.86
2023-12-11T17:49:49.277Z,99.80
2023-12-11T17:52:16.649Z,100.00
2023-12-11T17:54:44.029Z,100.00
2023-12-11T17:57:11.254Z,100.00
2023-12-11T17:59:38.430Z,100.00
2023-12-11T18:02:05.996Z,100.00
2023-12-11T18:04:33.426Z,100.00
2023-12-11T18:07:00.670Z,100.00
2023-12-11T18:09:27.904Z,100.00
2023-12-11T18:11:55.092Z,100.00
2023-12-11T18:14:24.175Z,100.00
2023-12-11T18:16:51.331Z,100.00
2023-12-11T18:19:18.646Z,100.00
2023-12-11T18:21:46.400Z,100.00
2023-12-11T18:24:13.737Z,100.00
2023-12-11T18:26:40.969Z,100.00
2023-12-11T18:29:08.254Z,100.00
2023-12-11T18:31:35.679Z,100.00
2023-12-11T18:34:03.137Z,100.00
2023-12-11T18:36:30.547Z,100.00
2023-12-11T18:38:57.748Z,100.00
2023-12-11T18:41:25.026Z,100.00
2023-12-11T18:43:52.303Z,100.00
2023-12-11T18:46:22.332Z,100.00
2023-12-11T18:48:49.826Z,100.00
2023-12-11T18:51:31.416Z,100.00
2023-12-11T18:53:59.118Z,100.00
2023-12-11T18:56:26.658Z,100.00
2023-12-11T18:58:54.396Z,100.00
2023-12-11T19:01:22.583Z,100.00
2023-12-11T19:03:50.122Z,100.00
2023-12-11T19:06:17.956Z,100.00
2023-12-11T19:08:45.873Z,100.00
2023-12-11T19:11:17.306Z,100.00
2023-12-11T19:13:44.538Z,100.00
2023-12-11T19:16:11.730Z,100.00
2023-12-11T19:18:39.043Z,100.00
2023-12-11T19:21:07.022Z,100.00
2023-12-11T19:23:34.264Z,100.00
2023-12-11T19:26:01.339Z,100.00
2023-12-11T19:28:28.734Z,100.00
2023-12-11T19:30:56.016Z,100.00
2023-12-11T19:33:23.319Z,100.00
2023-12-11T19:35:53.222Z,100.00
2023-12-11T19:38:20.442Z,100.00
2023-12-11T19:40:47.512Z,100.00
2023-12-11T19:43:14.746Z,100.00
2023-12-11T19:45:42.104Z,100.00
2023-12-11T19:48:09.438Z,100.00
2023-12-11T19:50:36.753Z,100.00
2023-12-11T19:53:03.911Z,100.00
2023-12-11T19:55:31.184Z,100.00
2023-12-11T19:57:58.377Z,100.00
2023-12-11T20:00:25.957Z,100.00
2023-12-11T20:02:53.129Z,100.00
2023-12-11T20:05:20.375Z,100.00
2023-12-11T20:07:47.505Z,100.00
2023-12-11T20:10:16.636Z,100.00
2023-12-11T20:12:43.995Z,100.00
2023-12-11T20:15:14.237Z,100.00
2023-12-11T20:17:41.954Z,100.00
2023-12-11T20:20:09.891Z,100.00
2023-12-11T20:22:37.277Z,100.00
2023-12-11T20:25:04.950Z,100.00
2023-12-11T20:27:33.620Z,100.00
2023-12-11T20:30:01.254Z,100.00
2023-12-11T20:32:28.536Z,100.00
2023-12-11T20:34:55.817Z,100.00
2023-12-11T20:37:23.093Z,100.00
2023-12-11T20:39:50.229Z,100.00
2023-12-11T20:42:18.864Z,100.00
2023-12-11T20:44:45.981Z,100.00
2023-12-11T20:47:13.311Z,100.00
2023-12-11T20:49:40.653Z,100.00
2023-12-11T20:52:07.928Z,100.00
2023-12-11T20:54:35.092Z,100.00
2023-12-11T20:57:02.241Z,100.00
2023-12-11T20:59:29.473Z,100.00
2023-12-11T21:01:56.852Z,100.00
2023-12-11T21:04:24.941Z,100.00
2023-12-11T21:06:52.177Z,100.00
2023-12-11T21:09:19.505Z,100.00
2023-12-11T21:11:46.664Z,100.00
2023-12-11T21:14:13.872Z,100.00
2023-12-11T21:16:41.538Z,100.00
2023-12-11T21:19:08.916Z,100.00
2023-12-11T21:21:37.021Z,100.00
2023-12-11T21:24:04.663Z,100.00
2023-12-11T21:26:32.216Z,100.00
2023-12-11T21:29:00.532Z,100.00
2023-12-11T21:31:31.275Z,100.00
2023-12-11T21:33:59.649Z,100.00
2023-12-11T21:36:30.969Z,100.00
2023-12-11T21:38:59.562Z,100.00
2023-12-11T21:41:27.224Z,100.00
2023-12-11T21:43:54.804Z,100.00
2023-12-11T21:46:22.280Z,100.00
2023-12-11T21:48:50.187Z,100.00
2023-12-11T21:51:19.164Z,100.00
2023-12-11T21:53:47.014Z,100.00
2023-12-11T21:56:14.811Z,100.00
2023-12-11T21:58:42.673Z,100.00
2023-12-11T22:01:10.208Z,100.00
2023-12-11T22:03:37.977Z,100.00
2023-12-11T22:06:05.194Z,100.00
2023-12-11T22:08:32.337Z,100.00
2023-12-11T22:10:59.364Z,100.00
2023-12-11T22:13:26.627Z,100.00
2023-12-11T22:15:53.877Z,100.00
2023-12-11T22:18:21.226Z,100.00
2023-12-11T22:20:48.654Z,100.00
2023-12-11T22:23:15.776Z,100.00
2023-12-11T22:25:43.025Z,100.00
2023-12-11T22:28:10.168Z,100.00
2023-12-11T22:30:37.302Z,100.00
2023-12-11T22:33:04.460Z,100.00
2023-12-11T22:35:31.521Z,100.00
2023-12-11T22:37:58.780Z,100.00
2023-12-11T22:40:25.934Z,100.00
2023-12-11T22:42:53.182Z,100.00
2023-12-11T22:45:22.582Z,100.00
2023-12-11T22:47:50.132Z,100.00
2023-12-11T22:50:17.376Z,100.00
2023-12-11T22:52:44.564Z,100.00
2023-12-11T22:55:11.833Z,100.00
2023-12-11T22:57:40.564Z,100.00
2023-12-11T23:00:11.957Z,100.00
2023-12-11T23:02:39.799Z,100.00
2023-12-11T23:05:07.477Z,100.00
2023-12-11T23:07:34.987Z,100.00
2023-12-11T23:10:02.545Z,100.00
2023-12-11T23:12:29.740Z,100.00
2023-12-11T23:14:56.791Z,100.00
2023-12-11T23:17:23.966Z,100.00
2023-12-11T23:19:51.183Z,100.00
2023-12-11T23:22:18.416Z,100.00
2023-12-11T23:24:45.530Z,100.00
2023-12-11T23:27:12.679Z,100.00
2023-12-11T23:29:42.081Z,100.00
2023-12-11T23:32:09.352Z,100.00
2023-12-11T23:34:36.456Z,100.00
2023-12-11T23:37:03.679Z,100.00
2023-12-11T23:39:30.778Z,100.00
2023-12-11T23:41:57.883Z,100.00
2023-12-11T23:44:24.984Z,100.00
2023-12-11T23:46:52.134Z,100.00
2023-12-11T23:49:19.389Z,100.00
2023-12-11T23:51:46.552Z,100.00
2023-12-11T23:54:13.632Z,100.00
2023-12-11T23:56:40.796Z,100.00
2023-12-11T23:59:09.983Z,100.00
